WetterOnline ( http://www.wetteronline.de )

Wetter aktuell Malsch

Aktuelles Wetter: Rheinstetten (116m)

6-stündlich | Neueste Meldungen
Ortszeit Temperatur Wetter
Mi, 24.01. 7:00 8.9° C wolkig
Mi, 24.01. 1:00 9.1° C bedeckt
Di, 23.01. 19:00 8.1° C bedeckt
Di, 23.01. 13:00 8.2° C bedeckt
Di, 23.01. 7:00 5.9° C bedeckt
Di, 23.01. 1:00 6.8° C bedeckt
Mo, 22.01. 19:00 8.6° C bewölkt
Mo, 22.01. 13:00 9.7° C leichter Regen
Ortszeit Temperatur Wetter
Mi, 24.01. 8:30 8.5° C wolkig
Mi, 24.01. 8:20 8.5° C wolkig
Mi, 24.01. 8:10 8.5° C wolkig
Mi, 24.01. 8:00 8.9° C fast wolkenlos
Mi, 24.01. 7:50 8.9° C fast wolkenlos
Mi, 24.01. 7:40 9.0° C wolkenlos
Mi, 24.01. 7:30 9.0° C fast wolkenlos
Mi, 24.01. 7:00 8.9° C wolkig
Mi, 24.01. 6:30 9.0° C bewölkt
Mi, 24.01. 6:00 9.2° C bedeckt
Mi, 24.01. 5:30 9.0° C bedeckt
Ortszeit Relative Feuchte Sichtweite
Mi, 24.01. 7:00 81% 70 km
Mi, 24.01. 1:00 67% 70 km
Di, 23.01. 19:00 77% 35 km
Di, 23.01. 13:00 79% 45 km
Di, 23.01. 7:00 89% 30 km
Di, 23.01. 1:00 85% 29 km
Mo, 22.01. 19:00 99% 2.6 km
Mo, 22.01. 13:00 95% 24 km
Ortszeit Relative Feuchte Sichtweite
Mi, 24.01. 8:30 84% 70 km
Mi, 24.01. 8:20 84% -
Mi, 24.01. 8:10 84% -
Mi, 24.01. 8:00 81% 70 km
Mi, 24.01. 7:50 81% -
Mi, 24.01. 7:40 81% -
Mi, 24.01. 7:30 81% 70 km
Mi, 24.01. 7:00 81% 70 km
Mi, 24.01. 6:30 79% 70 km
Mi, 24.01. 6:00 79% 70 km
Mi, 24.01. 5:30 79% 70 km
Ortszeit Niederschlagsmenge Niederschlagsart
Mi, 24.01. 7:00 0.0 l/m2 in 12 Std. -
Mi, 24.01. 1:00 0.0 l/m2 in 6 Std. -
Di, 23.01. 19:00 0.0 l/m2 in 12 Std. -
Di, 23.01. 13:00 0.0 l/m2 in 6 Std. -
Di, 23.01. 7:00 0.1 l/m2 in 12 Std. Regen
Di, 23.01. 1:00 0.0 l/m2 in 6 Std. -
Mo, 22.01. 19:00 9 l/m2 in 12 Std. Regen
Mo, 22.01. 13:00 4 l/m2 in 6 Std. Regen
Ortszeit Niederschlagsmenge Niederschlagsart
Mi, 24.01. 8:30 0.0 l/m2 in 1 Std. -
Mi, 24.01. 8:20 keine Meldung -
Mi, 24.01. 8:10 keine Meldung -
Mi, 24.01. 8:00 0.0 l/m2 in 1 Std. -
Mi, 24.01. 7:50 keine Meldung -
Mi, 24.01. 7:40 keine Meldung -
Mi, 24.01. 7:30 0.0 l/m2 in 1 Std. -
Mi, 24.01. 7:00 0.0 l/m2 in 1 Std. -
Mi, 24.01. 6:30 0.0 l/m2 in 1 Std. -
Mi, 24.01. 6:00 0.0 l/m2 in 1 Std. -
Mi, 24.01. 5:30 0.0 l/m2 in 1 Std. -
Ortszeit Stärke Spitze Richtung
km/h Bft. km/h Grad Sektor
Mi, 24.01. 7:00 15 3 41 230° SW
Mi, 24.01. 1:00 28 4 46 230° SW
Di, 23.01. 19:00 17 3 28 220° SW
Di, 23.01. 13:00 14 3 22 220° SW
Di, 23.01. 7:00 7 2 25 230° SW
Di, 23.01. 1:00 9 2 19 240° SW
Mo, 22.01. 19:00 9 2 26 240° SW
Mo, 22.01. 13:00 7 2 29 260° W
Ortszeit Stärke Spitze Richtung
km/h Bft. km/h Grad Sektor
Mi, 24.01. 8:30 14 3 29 210° SW
Mi, 24.01. 8:20 14 3 - 210° SW
Mi, 24.01. 8:10 14 3 - 220° SW
Mi, 24.01. 8:00 18 3 32 230° SW
Mi, 24.01. 7:50 18 3 - 230° SW
Mi, 24.01. 7:40 22 4 - 230° SW
Mi, 24.01. 7:30 22 4 29 230° SW
Mi, 24.01. 7:00 15 3 26 230° SW
Mi, 24.01. 6:30 19 3 26 230° SW
Mi, 24.01. 6:00 18 3 25 230° SW
Mi, 24.01. 5:30 14 3 22 230° SW
Ortszeit Untergrenze Bedeckung Gattung
total tief tief mittel hoch
Mi, 24.01. 7:00 780 m 5/8 4/8 - - -
Mi, 24.01. 1:00 750 m 8/8 8/8 - - -
Di, 23.01. 19:00 1170 m 8/8 8/8 - - -
Di, 23.01. 13:00 1440 m 8/8 8/8 - - -
Di, 23.01. 7:00 630 m 8/8 8/8 - - -
Di, 23.01. 1:00 1440 m 8/8 8/8 - - -
Mo, 22.01. 19:00 810 m 7/8 7/8 - - -
Mo, 22.01. 13:00 270 m 8/8 7/8 - - -
Ortszeit Bedeckungsgrad in Achtel und Wolkenuntergrenze
Mi, 24.01. 8:30 5(8700m) 8(9000m) 8(9000m)
Mi, 24.01. 8:20 5(8700m) 8(9000m) 8(9000m)
Mi, 24.01. 8:10 6(9000m) 7(9000m)
Mi, 24.01. 8:00 2(9000m) 5(9000m)
Mi, 24.01. 7:50 2(9000m)
Mi, 24.01. 7:40 keine Wolken
Mi, 24.01. 7:30 1(750m)
Mi, 24.01. 7:00 3(780m) 4(1320m) 5(10500m)
Mi, 24.01. 6:30 4(810m) 7(1320m) 7(10500m)
Mi, 24.01. 6:00 8(780m)
Mi, 24.01. 5:30 7(780m) 8(1320m)
Ortszeit Luftdruck NN (hPa) Tendenz (hPa in 3 Std.)
Mi, 24.01. 7:00 1025 - 0,6
Mi, 24.01. 1:00 1026 + 0,2
Di, 23.01. 19:00 1026 - 0,2
Di, 23.01. 13:00 1027 + 0,2
Di, 23.01. 7:00 1025 + 1,2
Di, 23.01. 1:00 1022 + 3,6
Mo, 22.01. 19:00 1014 + 4,0
Mo, 22.01. 13:00 1009 - 0,5
Ortszeit Luftdruck NN (hPa) Tendenz (hPa in 3 Std.)
Mi, 24.01. 8:30 1025 - 0,5
Mi, 24.01. 8:20 1025 keine Meldung
Mi, 24.01. 8:10 1025 keine Meldung
Mi, 24.01. 8:00 1025 - 0,5
Mi, 24.01. 7:50 1025 keine Meldung
Mi, 24.01. 7:40 1025 keine Meldung
Mi, 24.01. 7:30 1025 - 0,4
Mi, 24.01. 7:00 1025 - 0,6
Mi, 24.01. 6:30 1025 - 0,7
Mi, 24.01. 6:00 1025 - 0,9
Mi, 24.01. 5:30 1025 - 0,4
Ortszeit Schneehöhe (cm)
Mi, 24.01. 7:00 0
Mi, 24.01. 1:00 0
Di, 23.01. 19:00 0
Di, 23.01. 13:00 0
Di, 23.01. 7:00 0
Di, 23.01. 1:00 0
Mo, 22.01. 19:00 0
Mo, 22.01. 13:00 0
Ortszeit Schneehöhe (cm)
Mi, 24.01. 8:30 0
Mi, 24.01. 8:20 0
Mi, 24.01. 8:10 0
Mi, 24.01. 8:00 0
Mi, 24.01. 7:50 0
Mi, 24.01. 7:40 0
Mi, 24.01. 7:30 0
Mi, 24.01. 7:00 0
Mi, 24.01. 6:30 0
Mi, 24.01. 6:00 0
Mi, 24.01. 5:30 0
Link zu dieser Seite / Seite empfehlen

Das Wetter in ...